createdAt,value
2022-09-30T00:01:05.786Z,93751.84
2022-09-30T00:03:32.573Z,93745.00
2022-09-30T00:06:08.448Z,93744.16
2022-09-30T00:08:39.841Z,93762.03
2022-09-30T00:11:13.922Z,93747.28
2022-09-30T00:13:41.069Z,93758.72
2022-09-30T00:16:10.001Z,93758.72
2022-09-30T00:18:37.943Z,93767.31
2022-09-30T00:21:05.556Z,93753.28
2022-09-30T00:23:32.930Z,93758.88
2022-09-30T00:26:01.948Z,93770.56
2022-09-30T00:28:29.867Z,93772.81
2022-09-30T00:31:01.747Z,93778.56
2022-09-30T00:33:28.921Z,93781.25
2022-09-30T00:35:55.571Z,93775.03
2022-09-30T00:38:22.245Z,93784.41
2022-09-30T00:40:49.654Z,93769.19
2022-09-30T00:43:21.970Z,93761.66
2022-09-30T00:45:57.874Z,93767.88
2022-09-30T00:48:33.741Z,93770.25
2022-09-30T00:51:02.863Z,93776.97
2022-09-30T00:53:41.700Z,93771.16
2022-09-30T00:56:17.062Z,93766.78
2022-09-30T00:58:53.054Z,93760.69
2022-09-30T01:01:20.901Z,93764.94
2022-09-30T01:03:52.289Z,93772.72
2022-09-30T01:06:22.412Z,93773.88
2022-09-30T01:08:49.479Z,93787.00
2022-09-30T01:11:17.098Z,93779.72
2022-09-30T01:13:47.652Z,93788.22
2022-09-30T01:16:45.248Z,93738.97
2022-09-30T01:19:36.230Z,93757.50
2022-09-30T01:22:27.431Z,93760.41
2022-09-30T01:25:23.815Z,93753.88
2022-09-30T01:28:18.778Z,93771.63
2022-09-30T01:31:33.860Z,93764.72
2022-09-30T01:34:26.425Z,93778.81
2022-09-30T01:37:13.889Z,93762.63
2022-09-30T01:39:59.264Z,93774.56
2022-09-30T01:42:33.854Z,93781.47
2022-09-30T01:45:22.421Z,93784.72
2022-09-30T01:47:56.817Z,93776.53
2022-09-30T01:50:36.319Z,93770.69
2022-09-30T01:53:16.194Z,93778.88
2022-09-30T01:55:53.091Z,93770.25
2022-09-30T01:58:33.170Z,93785.72
2022-09-30T02:01:06.498Z,93789.81
2022-09-30T02:03:49.001Z,93791.78
2022-09-30T02:06:20.641Z,93790.00
2022-09-30T02:09:03.328Z,93783.06
2022-09-30T02:11:36.193Z,93791.91
2022-09-30T02:14:08.998Z,93800.03
2022-09-30T02:16:42.050Z,93799.69
2022-09-30T02:19:18.233Z,93805.78
2022-09-30T02:21:52.930Z,93808.66
2022-09-30T02:24:23.903Z,93812.66
2022-09-30T02:26:54.866Z,93814.72
2022-09-30T02:29:28.423Z,93824.66
2022-09-30T02:31:59.654Z,93819.66
2022-09-30T02:34:36.163Z,93816.88
2022-09-30T02:37:10.106Z,93816.06
2022-09-30T02:40:06.163Z,93812.75
2022-09-30T02:42:33.478Z,93810.53
2022-09-30T02:45:08.807Z,93828.47
2022-09-30T02:48:13.635Z,93831.00
2022-09-30T02:50:51.894Z,93809.03
2022-09-30T02:53:36.451Z,93809.59
2022-09-30T02:56:29.305Z,93818.66
2022-09-30T02:58:57.680Z,93835.44
2022-09-30T03:01:25.310Z,93837.66
2022-09-30T03:03:57.652Z,93834.53
2022-09-30T03:06:25.257Z,93832.34
2022-09-30T03:08:53.245Z,93835.22
2022-09-30T03:11:24.246Z,93833.91
2022-09-30T03:14:16.358Z,93848.22
2022-09-30T03:17:10.316Z,93832.94
2022-09-30T03:20:12.004Z,93842.25
2022-09-30T03:22:57.971Z,93835.44
2022-09-30T03:25:40.474Z,93845.16
2022-09-30T03:28:35.387Z,93852.69
2022-09-30T03:32:00.522Z,93839.97
2022-09-30T03:34:44.382Z,93849.13
2022-09-30T03:37:30.229Z,93845.91
2022-09-30T03:39:59.612Z,93835.44
2022-09-30T03:42:41.922Z,93845.16
2022-09-30T03:45:20.195Z,93846.72
2022-09-30T03:47:53.736Z,93839.75
2022-09-30T03:50:24.643Z,93837.44
2022-09-30T03:52:52.351Z,93848.66
2022-09-30T03:55:20.018Z,93863.72
2022-09-30T03:57:46.676Z,93856.41
2022-09-30T04:00:13.944Z,93869.00
2022-09-30T04:02:40.800Z,93854.09
2022-09-30T04:05:08.701Z,93855.28
2022-09-30T04:07:35.541Z,93874.53
2022-09-30T04:10:02.458Z,93862.25
2022-09-30T04:12:29.094Z,93869.16
2022-09-30T04:14:55.798Z,93859.91
2022-09-30T04:17:23.123Z,93886.94
2022-09-30T04:19:50.277Z,93875.00
2022-09-30T04:22:16.956Z,93879.69
2022-09-30T04:24:43.978Z,93894.16
2022-09-30T04:27:10.845Z,93888.81
2022-09-30T04:29:37.554Z,93904.63
2022-09-30T04:32:04.691Z,93905.09
2022-09-30T04:34:31.539Z,93911.63
2022-09-30T04:36:58.276Z,93891.53
2022-09-30T04:39:26.259Z,93902.19
2022-09-30T04:41:54.047Z,93900.19
2022-09-30T04:44:21.536Z,93900.84
2022-09-30T04:46:48.270Z,93901.94
2022-09-30T04:49:15.011Z,93882.78
2022-09-30T04:51:46.072Z,93898.84
2022-09-30T04:54:13.534Z,93911.00
2022-09-30T04:56:40.337Z,93918.72
2022-09-30T04:59:07.365Z,93912.66
2022-09-30T05:01:34.649Z,93912.25
2022-09-30T05:04:01.886Z,93900.16
2022-09-30T05:06:28.811Z,93893.22
2022-09-30T05:08:55.633Z,93880.22
2022-09-30T05:11:22.886Z,93894.81
2022-09-30T05:13:51.118Z,93909.16
2022-09-30T05:16:18.534Z,93907.19
2022-09-30T05:18:46.183Z,93910.31
2022-09-30T05:21:18.198Z,93904.88
2022-09-30T05:23:45.221Z,93921.16
2022-09-30T05:26:12.981Z,93936.13
2022-09-30T05:28:41.929Z,93935.09
2022-09-30T05:31:09.270Z,93921.16
2022-09-30T05:33:36.316Z,93924.63
2022-09-30T05:36:06.316Z,93908.69
2022-09-30T05:38:34.333Z,93906.38
2022-09-30T05:41:12.690Z,93886.22
2022-09-30T05:43:41.271Z,93895.72
2022-09-30T05:46:08.342Z,93896.84
2022-09-30T05:48:35.099Z,93910.47
2022-09-30T05:51:02.373Z,93906.78
2022-09-30T05:53:32.191Z,93923.88
2022-09-30T05:55:59.625Z,93922.66
2022-09-30T05:58:27.849Z,93916.09
2022-09-30T06:00:55.287Z,93926.53
2022-09-30T06:03:22.114Z,93926.94
2022-09-30T06:05:49.154Z,93931.56
2022-09-30T06:08:16.032Z,93942.72
2022-09-30T06:10:44.405Z,93925.78
2022-09-30T06:13:11.601Z,93944.78
2022-09-30T06:15:39.757Z,93938.78
2022-09-30T06:18:08.001Z,93950.59
2022-09-30T06:20:34.941Z,93948.50
2022-09-30T06:23:02.066Z,93978.59
2022-09-30T06:25:30.619Z,93950.78
2022-09-30T06:27:58.293Z,93962.25
2022-09-30T06:30:25.259Z,93962.13
2022-09-30T06:32:52.141Z,93967.28
2022-09-30T06:35:20.563Z,93978.41
2022-09-30T06:37:51.477Z,93970.00
2022-09-30T06:40:18.516Z,93968.13
2022-09-30T06:42:45.227Z,93962.22
2022-09-30T06:45:23.409Z,93973.94
2022-09-30T06:48:01.316Z,94006.81
2022-09-30T06:50:29.515Z,94004.56
2022-09-30T06:53:01.122Z,94013.69
2022-09-30T06:55:29.381Z,94002.47
2022-09-30T06:57:57.402Z,94001.25
2022-09-30T07:00:26.218Z,94004.84
2022-09-30T07:02:56.761Z,93995.63
2022-09-30T07:05:25.770Z,93979.69
2022-09-30T07:07:53.347Z,93999.28
2022-09-30T07:10:21.067Z,93979.22
2022-09-30T07:12:51.679Z,93995.97
2022-09-30T07:15:23.309Z,94009.09
2022-09-30T07:18:00.691Z,94001.72
2022-09-30T07:20:27.462Z,93990.22
2022-09-30T07:22:54.220Z,93975.47
2022-09-30T07:25:20.919Z,93998.25
2022-09-30T07:27:48.028Z,94011.63
2022-09-30T07:30:24.549Z,94000.88
2022-09-30T07:32:53.558Z,94034.47
2022-09-30T07:35:20.801Z,94024.41
2022-09-30T07:37:47.743Z,93988.28
2022-09-30T07:40:15.308Z,93999.84
2022-09-30T07:42:45.831Z,94008.31
2022-09-30T07:45:17.080Z,94013.31
2022-09-30T07:47:43.973Z,94036.84
2022-09-30T07:50:12.489Z,94037.44
2022-09-30T07:52:39.385Z,94002.97
2022-09-30T07:55:06.795Z,94019.28
2022-09-30T07:57:33.506Z,94010.41
2022-09-30T08:00:08.144Z,94000.81
2022-09-30T08:02:46.949Z,94018.53
2022-09-30T08:05:13.927Z,94002.22
2022-09-30T08:07:40.680Z,94045.72
2022-09-30T08:10:07.823Z,94049.03
2022-09-30T08:12:35.360Z,94046.69
2022-09-30T08:15:02.244Z,94065.13
2022-09-30T08:17:29.205Z,94037.22
2022-09-30T08:19:55.889Z,94048.84
2022-09-30T08:22:23.905Z,94061.53
2022-09-30T08:24:50.647Z,94099.63
2022-09-30T08:27:17.382Z,94073.66
2022-09-30T08:30:04.288Z,94043.91
2022-09-30T08:32:31.539Z,94051.00
2022-09-30T08:34:58.460Z,94079.28
2022-09-30T08:37:25.162Z,94059.22
2022-09-30T08:39:51.859Z,94057.00
2022-09-30T08:42:37.178Z,94028.28
2022-09-30T08:45:38.049Z,94062.97
2022-09-30T08:48:50.765Z,94056.19
2022-09-30T08:51:39.035Z,94033.84
2022-09-30T08:54:13.513Z,94041.47
2022-09-30T08:56:40.166Z,94040.53
2022-09-30T08:59:27.079Z,94072.78
2022-09-30T09:02:02.399Z,94066.28
2022-09-30T09:04:29.487Z,94079.47
2022-09-30T09:07:06.221Z,94108.06
2022-09-30T09:10:06.381Z,94075.97
2022-09-30T09:12:49.866Z,94100.28
2022-09-30T09:15:42.719Z,94078.28
2022-09-30T09:18:28.334Z,94135.22
2022-09-30T09:21:03.397Z,94120.75
2022-09-30T09:23:33.510Z,94064.97
2022-09-30T09:26:00.491Z,94099.59
2022-09-30T09:28:37.100Z,94081.84
2022-09-30T09:31:05.131Z,94077.56
2022-09-30T09:33:39.885Z,94094.19
2022-09-30T09:36:12.966Z,94110.63
2022-09-30T09:39:07.639Z,94109.28
2022-09-30T09:41:52.607Z,94117.91
2022-09-30T09:44:21.982Z,94114.41
2022-09-30T09:46:55.477Z,94123.75
2022-09-30T09:49:24.217Z,94134.06
2022-09-30T09:52:13.161Z,94131.50
2022-09-30T09:54:45.343Z,94119.25
2022-09-30T09:57:15.789Z,94095.03
2022-09-30T10:00:21.815Z,94078.13
2022-09-30T10:03:18.527Z,94104.50
2022-09-30T10:05:47.747Z,94129.38
2022-09-30T10:08:21.404Z,94105.75
2022-09-30T10:10:53.809Z,94088.06
2022-09-30T10:13:26.487Z,94101.16
2022-09-30T10:15:56.216Z,94109.13
2022-09-30T10:18:28.046Z,94098.13
2022-09-30T10:21:00.793Z,94118.06
2022-09-30T10:23:38.039Z,94146.13
2022-09-30T10:26:04.872Z,94162.66
2022-09-30T10:28:44.454Z,94160.81
2022-09-30T10:31:23.322Z,94121.88
2022-09-30T10:34:12.010Z,94136.41
2022-09-30T10:36:43.454Z,94149.22
2022-09-30T10:39:34.624Z,94106.59
2022-09-30T10:42:08.484Z,94123.28
2022-09-30T10:44:44.430Z,94151.56
2022-09-30T10:47:15.474Z,94171.72
2022-09-30T10:49:57.060Z,94195.66
2022-09-30T10:52:27.519Z,94185.88
2022-09-30T10:55:00.365Z,94167.88
2022-09-30T10:57:32.496Z,94189.03
2022-09-30T11:00:05.741Z,94197.97
2022-09-30T11:02:39.429Z,94168.97
2022-09-30T11:05:20.342Z,94168.00
2022-09-30T11:07:50.062Z,94189.91
2022-09-30T11:10:42.222Z,94182.41
2022-09-30T11:13:19.002Z,94200.81
2022-09-30T11:16:11.065Z,94175.75
2022-09-30T11:18:40.559Z,94163.28
2022-09-30T11:21:37.555Z,94155.72
2022-09-30T11:24:19.611Z,94177.91
2022-09-30T11:27:15.296Z,94185.00
2022-09-30T11:30:12.340Z,94169.06
2022-09-30T11:32:52.361Z,94173.56
2022-09-30T11:35:19.040Z,94190.38
2022-09-30T11:37:57.664Z,94201.44
2022-09-30T11:41:02.918Z,94212.19
2022-09-30T11:43:29.858Z,94206.56
2022-09-30T11:46:21.274Z,94211.97
2022-09-30T11:48:57.143Z,94189.66
2022-09-30T11:51:47.925Z,94194.50
2022-09-30T11:54:43.760Z,94186.91
2022-09-30T11:57:37.698Z,94179.09
2022-09-30T12:00:19.162Z,94159.13
2022-09-30T12:02:56.856Z,94157.97
2022-09-30T12:05:34.871Z,94153.66
2022-09-30T12:08:28.828Z,94177.63
2022-09-30T12:11:12.583Z,94184.75
2022-09-30T12:13:56.512Z,94204.59
2022-09-30T12:16:30.670Z,94192.06
2022-09-30T12:19:01.516Z,94177.91
2022-09-30T12:21:40.437Z,94172.28
2022-09-30T12:24:11.599Z,94170.75
2022-09-30T12:26:41.181Z,94195.13
2022-09-30T12:29:35.618Z,94196.78
2022-09-30T12:32:23.400Z,94183.84
2022-09-30T12:34:56.774Z,94165.66
2022-09-30T12:37:58.513Z,94156.31
2022-09-30T12:40:40.174Z,94150.22
2022-09-30T12:43:06.835Z,94182.41
2022-09-30T12:46:13.531Z,94186.03
2022-09-30T12:49:01.503Z,94179.06
2022-09-30T12:51:32.936Z,94170.66
2022-09-30T12:54:07.416Z,94166.63
2022-09-30T12:56:35.062Z,94165.31
2022-09-30T12:59:03.776Z,94172.81
2022-09-30T13:01:35.551Z,94190.25
2022-09-30T13:04:02.260Z,94150.97
2022-09-30T13:06:47.112Z,94173.19
2022-09-30T13:09:16.914Z,94180.81
2022-09-30T13:11:45.848Z,94172.97
2022-09-30T13:14:20.251Z,94149.78
2022-09-30T13:17:03.112Z,94171.94
2022-09-30T13:19:40.413Z,94172.47
2022-09-30T13:22:24.584Z,94157.38
2022-09-30T13:24:57.779Z,94185.88
2022-09-30T13:27:34.816Z,94161.44
2022-09-30T13:30:03.130Z,94132.34
2022-09-30T13:32:37.852Z,94146.78
2022-09-30T13:35:30.558Z,94159.25
2022-09-30T13:38:15.643Z,94174.13
2022-09-30T13:41:04.529Z,94131.56
2022-09-30T13:43:36.595Z,94185.97
2022-09-30T13:46:14.910Z,94143.94
2022-09-30T13:48:49.337Z,94157.66
2022-09-30T13:51:18.800Z,94157.03
2022-09-30T13:53:55.810Z,94156.59
2022-09-30T13:56:26.624Z,94189.38
2022-09-30T13:59:31.850Z,94182.03
2022-09-30T14:02:13.701Z,94157.56
2022-09-30T14:04:50.168Z,94208.13
2022-09-30T14:07:37.724Z,94190.13
2022-09-30T14:10:16.868Z,94215.16
2022-09-30T14:12:50.052Z,94234.75
2022-09-30T14:15:47.389Z,94222.00
2022-09-30T14:18:38.175Z,94192.16
2022-09-30T14:21:40.554Z,94226.03
2022-09-30T14:24:17.545Z,94244.16
2022-09-30T14:26:44.246Z,94235.66
2022-09-30T14:29:27.962Z,94219.31
2022-09-30T14:31:56.170Z,94203.38
2022-09-30T14:34:25.717Z,94185.31
2022-09-30T14:36:54.200Z,94200.53
2022-09-30T14:39:28.290Z,94172.97
2022-09-30T14:41:57.927Z,94161.41
2022-09-30T14:44:29.991Z,94181.94
2022-09-30T14:47:01.519Z,94215.75
2022-09-30T14:49:36.083Z,94211.72
2022-09-30T14:52:04.345Z,94222.38
2022-09-30T14:54:33.198Z,94202.69
2022-09-30T14:57:03.027Z,94210.72
2022-09-30T14:59:33.227Z,94215.00
2022-09-30T15:02:11.413Z,94187.81
2022-09-30T15:04:42.643Z,94200.47
2022-09-30T15:07:12.028Z,94211.38
2022-09-30T15:09:42.267Z,94204.94
2022-09-30T15:12:19.203Z,94225.78
2022-09-30T15:14:51.322Z,94225.94
2022-09-30T15:17:20.793Z,94220.03
2022-09-30T15:19:50.256Z,94195.06
2022-09-30T15:22:19.106Z,94203.94
2022-09-30T15:24:48.616Z,94210.00
2022-09-30T15:27:37.028Z,94209.34
2022-09-30T15:30:16.877Z,94222.84
2022-09-30T15:32:45.347Z,94204.72
2022-09-30T15:35:17.115Z,94217.66
2022-09-30T15:37:44.620Z,94237.00
2022-09-30T15:40:38.899Z,94224.88
2022-09-30T15:43:08.278Z,94217.00
2022-09-30T15:45:37.952Z,94224.50
2022-09-30T15:48:17.110Z,94207.69
2022-09-30T15:50:49.750Z,94195.91
2022-09-30T15:53:24.154Z,94227.44
2022-09-30T15:55:59.186Z,94236.34
2022-09-30T15:58:37.885Z,94243.09
2022-09-30T16:01:22.112Z,94240.16
2022-09-30T16:04:00.609Z,94271.22
2022-09-30T16:06:36.932Z,94226.34
2022-09-30T16:09:08.691Z,94258.13
2022-09-30T16:11:41.323Z,94235.75
2022-09-30T16:14:19.002Z,94261.19
2022-09-30T16:16:55.241Z,94257.59
2022-09-30T16:19:24.592Z,94257.56
2022-09-30T16:21:53.074Z,94261.88
2022-09-30T16:24:22.550Z,94253.16
2022-09-30T16:26:50.173Z,94251.00
2022-09-30T16:29:17.946Z,94238.16
2022-09-30T16:31:47.550Z,94238.50
2022-09-30T16:34:38.583Z,94253.59
2022-09-30T16:37:18.141Z,94233.13
2022-09-30T16:39:45.123Z,94263.41
2022-09-30T16:42:16.394Z,94288.31
2022-09-30T16:44:45.791Z,94291.19
2022-09-30T16:47:14.442Z,94296.13
2022-09-30T16:49:43.168Z,94273.78
2022-09-30T16:52:11.550Z,94265.91
2022-09-30T16:54:38.566Z,94289.59
2022-09-30T16:57:05.278Z,94292.22
2022-09-30T16:59:33.039Z,94277.97
2022-09-30T17:02:01.136Z,94281.47
2022-09-30T17:04:28.289Z,94290.66
2022-09-30T17:06:57.408Z,94285.56
2022-09-30T17:09:24.159Z,94287.44
2022-09-30T17:11:53.255Z,94293.63
2022-09-30T17:14:20.036Z,94288.75
2022-09-30T17:16:48.371Z,94294.31
2022-09-30T17:19:16.094Z,94303.03
2022-09-30T17:21:42.962Z,94291.59
2022-09-30T17:24:09.681Z,94299.59
2022-09-30T17:26:37.094Z,94308.91
2022-09-30T17:29:21.002Z,94313.47
2022-09-30T17:31:53.816Z,94313.75
2022-09-30T17:34:20.664Z,94314.25
2022-09-30T17:36:47.988Z,94316.63
2022-09-30T17:39:14.752Z,94329.78
2022-09-30T17:41:59.975Z,94327.50
2022-09-30T17:44:26.906Z,94336.41
2022-09-30T17:47:00.180Z,94321.69
2022-09-30T17:49:35.582Z,94321.03
2022-09-30T17:52:04.254Z,94309.03
2022-09-30T17:54:31.729Z,94316.72
2022-09-30T17:56:58.619Z,94322.50
2022-09-30T17:59:27.009Z,94323.84
2022-09-30T18:01:56.502Z,94324.06
2022-09-30T18:04:26.190Z,94305.25
2022-09-30T18:06:54.300Z,94316.13
2022-09-30T18:09:21.756Z,94321.00
2022-09-30T18:11:50.302Z,94308.72
2022-09-30T18:14:17.780Z,94321.59
2022-09-30T18:16:45.690Z,94309.91
2022-09-30T18:21:44.305Z,94298.19
2022-09-30T18:24:11.030Z,94260.13
2022-09-30T18:26:37.773Z,94254.97
2022-09-30T18:29:06.182Z,94307.06
2022-09-30T18:31:37.960Z,94301.44
2022-09-30T18:34:06.276Z,94307.91
2022-09-30T18:36:33.604Z,94301.31
2022-09-30T18:39:02.904Z,94312.91
2022-09-30T18:41:32.058Z,94331.34
2022-09-30T18:44:03.255Z,94306.44
2022-09-30T18:46:31.796Z,94313.41
2022-09-30T18:48:58.612Z,94320.78
2022-09-30T18:51:25.527Z,94337.53
2022-09-30T18:53:56.089Z,94353.59
2022-09-30T18:56:24.430Z,94361.84
2022-09-30T18:58:54.267Z,94358.63
2022-09-30T19:01:21.194Z,94340.94
2022-09-30T19:03:49.251Z,94354.91
2022-09-30T19:06:16.135Z,94347.25
2022-09-30T19:08:43.628Z,94335.84
2022-09-30T19:11:14.715Z,94349.91
2022-09-30T19:13:43.260Z,94352.00
2022-09-30T19:16:11.185Z,94316.91
2022-09-30T19:18:39.817Z,94346.00
2022-09-30T19:21:12.197Z,94346.28
2022-09-30T19:23:40.232Z,94332.53
2022-09-30T19:26:10.181Z,94345.25
2022-09-30T19:28:38.301Z,94348.03
2022-09-30T19:31:10.495Z,94365.53
2022-09-30T19:33:38.520Z,94361.09
2022-09-30T19:36:17.510Z,94364.28
2022-09-30T19:38:46.240Z,94375.13
2022-09-30T19:41:18.654Z,94366.50
2022-09-30T19:43:49.710Z,94369.63
2022-09-30T19:46:17.448Z,94355.06
2022-09-30T19:48:45.213Z,94344.78
2022-09-30T19:51:14.379Z,94349.63
2022-09-30T19:53:45.597Z,94347.97
2022-09-30T19:56:16.942Z,94310.72
2022-09-30T19:58:47.677Z,94339.88
2022-09-30T20:01:18.842Z,94350.38
2022-09-30T20:03:46.070Z,94355.34
2022-09-30T20:06:15.261Z,94341.19
2022-09-30T20:08:44.904Z,94339.75
2022-09-30T20:11:17.783Z,94331.84
2022-09-30T20:13:44.507Z,94351.34
2022-09-30T20:16:13.845Z,94341.00
2022-09-30T20:18:42.068Z,94341.44
2022-09-30T20:21:10.506Z,94351.69
2022-09-30T20:23:40.805Z,94348.50
2022-09-30T20:26:17.747Z,94350.03
2022-09-30T20:28:44.478Z,94346.19
2022-09-30T20:31:15.251Z,94351.81
2022-09-30T20:33:42.830Z,94341.19
2022-09-30T20:36:11.048Z,94347.03
2022-09-30T20:38:38.986Z,94325.72
2022-09-30T20:41:06.298Z,94325.63
2022-09-30T20:43:34.003Z,94327.81
2022-09-30T20:46:04.201Z,94320.34
2022-09-30T20:48:33.652Z,94331.72
2022-09-30T20:51:07.805Z,94319.28
2022-09-30T20:53:36.594Z,94303.63
2022-09-30T20:56:04.168Z,94317.63
2022-09-30T20:58:30.876Z,94318.97
2022-09-30T21:01:05.522Z,94306.81
2022-09-30T21:03:39.014Z,94310.94
2022-09-30T21:06:08.192Z,94341.75
2022-09-30T21:08:39.514Z,94346.53
2022-09-30T21:11:07.576Z,94349.31
2022-09-30T21:13:35.323Z,94353.00
2022-09-30T21:16:04.490Z,94360.47
2022-09-30T21:18:32.036Z,94357.97
2022-09-30T21:21:00.831Z,94369.44
2022-09-30T21:23:33.303Z,94373.59
2022-09-30T21:26:06.268Z,94372.94
2022-09-30T21:28:33.286Z,94365.38
2022-09-30T21:31:08.221Z,94372.78
2022-09-30T21:33:36.150Z,94376.41
2022-09-30T21:36:05.320Z,94373.69
2022-09-30T21:38:34.302Z,94379.66
2022-09-30T21:41:03.525Z,94366.75
2022-09-30T21:43:31.862Z,94342.09
2022-09-30T21:46:03.552Z,94346.13
2022-09-30T21:48:32.579Z,94355.00
2022-09-30T21:51:00.298Z,94367.59
2022-09-30T21:53:27.919Z,94368.88
2022-09-30T21:55:56.229Z,94357.94
2022-09-30T21:58:25.327Z,94358.66
2022-09-30T22:00:55.885Z,94370.72
2022-09-30T22:03:23.550Z,94349.13
2022-09-30T22:05:54.254Z,94365.88
2022-09-30T22:08:22.206Z,94329.38
2022-09-30T22:10:51.032Z,94357.09
2022-09-30T22:13:18.716Z,94355.75
2022-09-30T22:15:46.817Z,94372.69
2022-09-30T22:18:19.584Z,94378.59
2022-09-30T22:20:48.540Z,94383.28
2022-09-30T22:23:15.372Z,94386.44
2022-09-30T22:25:42.155Z,94380.84
2022-09-30T22:28:09.096Z,94370.56
2022-09-30T22:30:36.093Z,94386.03
2022-09-30T22:33:21.065Z,94365.91
2022-09-30T22:36:06.191Z,94392.22
2022-09-30T22:38:32.880Z,94377.00
2022-09-30T22:40:59.693Z,94390.41
2022-09-30T22:43:26.962Z,94389.19
2022-09-30T22:46:03.828Z,94379.84
2022-09-30T22:48:31.267Z,94391.44
2022-09-30T22:50:59.173Z,94402.63
2022-09-30T22:53:27.061Z,94390.72
2022-09-30T22:55:54.123Z,94403.41
2022-09-30T22:58:26.954Z,94400.81
2022-09-30T23:00:56.281Z,94407.13
2022-09-30T23:03:25.471Z,94393.88
2022-09-30T23:05:53.088Z,94410.94
2022-09-30T23:08:20.193Z,94422.25
2022-09-30T23:10:50.725Z,94405.13
2022-09-30T23:13:20.108Z,94388.03
2022-09-30T23:15:50.411Z,94378.38
2022-09-30T23:18:17.342Z,94400.22
2022-09-30T23:20:54.566Z,94403.91
2022-09-30T23:23:21.245Z,94411.03
2022-09-30T23:25:47.934Z,94417.00
2022-09-30T23:28:14.765Z,94416.38
2022-09-30T23:30:41.440Z,94413.19
2022-09-30T23:33:10.136Z,94422.84
2022-09-30T23:35:36.835Z,94442.53
2022-09-30T23:38:03.483Z,94430.91
2022-09-30T23:40:31.359Z,94443.97
2022-09-30T23:42:58.057Z,94427.81
2022-09-30T23:45:24.851Z,94433.59
2022-09-30T23:47:51.644Z,94448.53
2022-09-30T23:50:18.339Z,94456.72
2022-09-30T23:52:45.136Z,94463.72
2022-09-30T23:55:11.794Z,94458.84
2022-09-30T23:57:38.559Z,94468.03
